sensor_id;sensor_type;location;lat;lon;timestamp;temperature;humidity
7290;DHT22;63176;52.678;13.250;2024-03-02T00:00:04;6.20;99.90
7290;DHT22;63176;52.678;13.250;2024-03-02T00:02:47;6.20;99.90
7290;DHT22;63176;52.678;13.250;2024-03-02T00:05:21;6.20;99.90
7290;DHT22;63176;52.678;13.250;2024-03-02T00:07:59;6.20;99.90
7290;DHT22;63176;52.678;13.250;2024-03-02T00:10:30;6.20;99.90
7290;DHT22;63176;52.678;13.250;2024-03-02T00:13:02;6.30;99.90
7290;DHT22;63176;52.678;13.250;2024-03-02T00:15:48;6.30;99.90
7290;DHT22;63176;52.678;13.250;2024-03-02T00:18:24;6.40;99.90
7290;DHT22;63176;52.678;13.250;2024-03-02T00:20:56;6.40;99.90
7290;DHT22;63176;52.678;13.250;2024-03-02T00:23:27;6.40;99.90
7290;DHT22;63176;52.678;13.250;2024-03-02T00:25:55;6.40;99.90
7290;DHT22;63176;52.678;13.250;2024-03-02T00:28:33;6.40;99.90
7290;DHT22;63176;52.678;13.250;2024-03-02T00:31:09;6.40;99.90
7290;DHT22;63176;52.678;13.250;2024-03-02T00:33:48;6.40;99.90
7290;DHT22;63176;52.678;13.250;2024-03-02T00:36:15;6.40;99.90
7290;DHT22;63176;52.678;13.250;2024-03-02T00:41:31;6.50;99.90
7290;DHT22;63176;52.678;13.250;2024-03-02T00:43:59;6.50;99.90
7290;DHT22;63176;52.678;13.250;2024-03-02T00:46:32;6.50;99.90
7290;DHT22;63176;52.678;13.250;2024-03-02T00:49:05;6.60;99.90
7290;DHT22;63176;52.678;13.250;2024-03-02T00:51:37;6.50;99.90
7290;DHT22;63176;52.678;13.250;2024-03-02T00:54:09;6.50;99.90
7290;DHT22;63176;52.678;13.250;2024-03-02T00:56:36;6.60;99.90
7290;DHT22;63176;52.678;13.250;2024-03-02T00:59:01;6.60;99.90
7290;DHT22;63176;52.678;13.250;2024-03-02T01:01:27;6.60;99.90
7290;DHT22;63176;52.678;13.250;2024-03-02T01:03:53;6.60;99.90
7290;DHT22;63176;52.678;13.250;2024-03-02T01:06:19;6.60;99.90
7290;DHT22;63176;52.678;13.250;2024-03-02T01:08:45;6.60;99.90
7290;DHT22;63176;52.678;13.250;2024-03-02T01:11:11;6.70;99.90
7290;DHT22;63176;52.678;13.250;2024-03-02T01:13:37;6.70;99.90
7290;DHT22;63176;52.678;13.250;2024-03-02T01:16:03;6.80;99.90
7290;DHT22;63176;52.678;13.250;2024-03-02T01:18:29;6.80;99.90
7290;DHT22;63176;52.678;13.250;2024-03-02T01:20:56;6.80;99.90
7290;DHT22;63176;52.678;13.250;2024-03-02T01:23:25;6.80;99.90
7290;DHT22;63176;52.678;13.250;2024-03-02T01:25:51;6.80;99.90
7290;DHT22;63176;52.678;13.250;2024-03-02T01:28:18;6.80;99.90
7290;DHT22;63176;52.678;13.250;2024-03-02T01:30:47;6.80;99.90
7290;DHT22;63176;52.678;13.250;2024-03-02T01:33:13;6.80;99.90
7290;DHT22;63176;52.678;13.250;2024-03-02T01:35:39;6.80;99.90
7290;DHT22;63176;52.678;13.250;2024-03-02T01:38:04;6.80;99.90
7290;DHT22;63176;52.678;13.250;2024-03-02T01:40:37;6.80;99.90
7290;DHT22;63176;52.678;13.250;2024-03-02T01:43:04;6.80;99.90
7290;DHT22;63176;52.678;13.250;2024-03-02T01:45:30;6.80;99.90
7290;DHT22;63176;52.678;13.250;2024-03-02T01:47:56;6.80;99.90
7290;DHT22;63176;52.678;13.250;2024-03-02T01:50:31;6.90;99.90
7290;DHT22;63176;52.678;13.250;2024-03-02T01:52:57;6.90;99.90
7290;DHT22;63176;52.678;13.250;2024-03-02T01:55:23;6.90;99.90
7290;DHT22;63176;52.678;13.250;2024-03-02T01:57:49;6.90;99.90
7290;DHT22;63176;52.678;13.250;2024-03-02T02:00:20;7.00;99.90
7290;DHT22;63176;52.678;13.250;2024-03-02T02:02:46;7.00;99.90
7290;DHT22;63176;52.678;13.250;2024-03-02T02:05:13;7.00;99.90
7290;DHT22;63176;52.678;13.250;2024-03-02T02:07:40;7.00;99.90
7290;DHT22;63176;52.678;13.250;2024-03-02T02:10:07;6.90;99.90
7290;DHT22;63176;52.678;13.250;2024-03-02T02:12:33;6.90;99.90
7290;DHT22;63176;52.678;13.250;2024-03-02T02:14:59;6.90;99.90
7290;DHT22;63176;52.678;13.250;2024-03-02T02:17:24;6.90;99.90
7290;DHT22;63176;52.678;13.250;2024-03-02T02:19:50;7.00;99.90
7290;DHT22;63176;52.678;13.250;2024-03-02T02:22:15;7.00;99.90
7290;DHT22;63176;52.678;13.250;2024-03-02T02:24:42;6.90;99.90
7290;DHT22;63176;52.678;13.250;2024-03-02T02:27:08;7.00;99.90
7290;DHT22;63176;52.678;13.250;2024-03-02T02:29:35;6.90;99.90
7290;DHT22;63176;52.678;13.250;2024-03-02T02:32:01;7.00;99.90
7290;DHT22;63176;52.678;13.250;2024-03-02T02:34:27;6.90;99.90
7290;DHT22;63176;52.678;13.250;2024-03-02T02:36:52;6.90;99.90
7290;DHT22;63176;52.678;13.250;2024-03-02T02:39:20;7.00;99.90
7290;DHT22;63176;52.678;13.250;2024-03-02T02:41:46;6.90;99.90
7290;DHT22;63176;52.678;13.250;2024-03-02T02:44:12;7.00;99.90
7290;DHT22;63176;52.678;13.250;2024-03-02T02:46:41;7.00;99.90
7290;DHT22;63176;52.678;13.250;2024-03-02T02:49:07;7.00;99.90
7290;DHT22;63176;52.678;13.250;2024-03-02T02:51:33;7.00;99.90
7290;DHT22;63176;52.678;13.250;2024-03-02T02:53:58;7.00;99.90
7290;DHT22;63176;52.678;13.250;2024-03-02T02:56:24;7.00;99.90
7290;DHT22;63176;52.678;13.250;2024-03-02T02:58:50;6.90;99.90
7290;DHT22;63176;52.678;13.250;2024-03-02T03:01:16;7.00;99.90
7290;DHT22;63176;52.678;13.250;2024-03-02T03:03:45;7.00;99.90
7290;DHT22;63176;52.678;13.250;2024-03-02T03:06:11;7.00;99.90
7290;DHT22;63176;52.678;13.250;2024-03-02T03:08:37;7.00;99.90
7290;DHT22;63176;52.678;13.250;2024-03-02T03:11:04;7.00;99.90
7290;DHT22;63176;52.678;13.250;2024-03-02T03:13:33;7.00;99.90
7290;DHT22;63176;52.678;13.250;2024-03-02T03:15:59;7.10;99.90
7290;DHT22;63176;52.678;13.250;2024-03-02T03:18:25;7.10;99.90
7290;DHT22;63176;52.678;13.250;2024-03-02T03:20:50;7.10;99.90
7290;DHT22;63176;52.678;13.250;2024-03-02T03:23:16;7.10;99.90
7290;DHT22;63176;52.678;13.250;2024-03-02T03:25:42;7.10;99.90
7290;DHT22;63176;52.678;13.250;2024-03-02T03:28:09;7.10;99.90
7290;DHT22;63176;52.678;13.250;2024-03-02T03:30:38;7.10;99.90
7290;DHT22;63176;52.678;13.250;2024-03-02T03:33:04;7.10;99.90
7290;DHT22;63176;52.678;13.250;2024-03-02T03:35:33;7.20;99.90
7290;DHT22;63176;52.678;13.250;2024-03-02T03:38:00;7.10;99.90
7290;DHT22;63176;52.678;13.250;2024-03-02T03:40:26;7.20;99.90
7290;DHT22;63176;52.678;13.250;2024-03-02T03:42:51;7.30;99.90
7290;DHT22;63176;52.678;13.250;2024-03-02T03:45:17;7.40;99.90
7290;DHT22;63176;52.678;13.250;2024-03-02T03:47:43;7.40;99.90
7290;DHT22;63176;52.678;13.250;2024-03-02T03:50:09;7.50;99.90
7290;DHT22;63176;52.678;13.250;2024-03-02T03:52:35;7.50;99.90
7290;DHT22;63176;52.678;13.250;2024-03-02T03:55:01;7.60;99.90
7290;DHT22;63176;52.678;13.250;2024-03-02T03:57:27;7.70;99.90
7290;DHT22;63176;52.678;13.250;2024-03-02T03:59:53;7.70;99.90
7290;DHT22;63176;52.678;13.250;2024-03-02T04:02:19;7.70;99.90
7290;DHT22;63176;52.678;13.250;2024-03-02T04:04:45;7.70;99.90
7290;DHT22;63176;52.678;13.250;2024-03-02T04:07:11;7.70;99.90
7290;DHT22;63176;52.678;13.250;2024-03-02T04:09:37;7.80;99.90
7290;DHT22;63176;52.678;13.250;2024-03-02T04:12:03;7.80;99.90
7290;DHT22;63176;52.678;13.250;2024-03-02T04:14:29;7.80;99.90
7290;DHT22;63176;52.678;13.250;2024-03-02T04:16:54;7.90;99.90
7290;DHT22;63176;52.678;13.250;2024-03-02T04:19:20;7.90;99.90
7290;DHT22;63176;52.678;13.250;2024-03-02T04:21:45;7.90;99.90
7290;DHT22;63176;52.678;13.250;2024-03-02T04:24:11;7.90;99.90
7290;DHT22;63176;52.678;13.250;2024-03-02T04:26:37;7.90;99.90
7290;DHT22;63176;52.678;13.250;2024-03-02T04:29:02;7.90;99.90
7290;DHT22;63176;52.678;13.250;2024-03-02T04:31:28;7.90;99.90
7290;DHT22;63176;52.678;13.250;2024-03-02T04:33:54;7.90;99.90
7290;DHT22;63176;52.678;13.250;2024-03-02T04:36:20;7.90;99.90
7290;DHT22;63176;52.678;13.250;2024-03-02T04:38:46;7.90;99.90
7290;DHT22;63176;52.678;13.250;2024-03-02T04:41:12;8.00;99.90
7290;DHT22;63176;52.678;13.250;2024-03-02T04:43:37;8.00;99.90
7290;DHT22;63176;52.678;13.250;2024-03-02T04:46:05;8.00;99.90
7290;DHT22;63176;52.678;13.250;2024-03-02T04:48:32;8.00;99.90
7290;DHT22;63176;52.678;13.250;2024-03-02T04:50:58;8.00;99.90
7290;DHT22;63176;52.678;13.250;2024-03-02T04:53:23;8.00;99.90
7290;DHT22;63176;52.678;13.250;2024-03-02T04:55:49;8.00;99.90
7290;DHT22;63176;52.678;13.250;2024-03-02T04:58:43;8.00;99.90
7290;DHT22;63176;52.678;13.250;2024-03-02T05:01:09;7.90;99.90
7290;DHT22;63176;52.678;13.250;2024-03-02T05:03:36;7.90;99.90
7290;DHT22;63176;52.678;13.250;2024-03-02T05:06:01;7.90;99.90
7290;DHT22;63176;52.678;13.250;2024-03-02T05:08:27;7.90;99.90
7290;DHT22;63176;52.678;13.250;2024-03-02T05:10:53;7.90;99.90
7290;DHT22;63176;52.678;13.250;2024-03-02T05:13:18;7.90;99.90
7290;DHT22;63176;52.678;13.250;2024-03-02T05:15:46;7.90;99.90
7290;DHT22;63176;52.678;13.250;2024-03-02T05:18:12;7.90;99.90
7290;DHT22;63176;52.678;13.250;2024-03-02T05:20:37;7.90;99.90
7290;DHT22;63176;52.678;13.250;2024-03-02T05:23:03;7.90;99.90
7290;DHT22;63176;52.678;13.250;2024-03-02T05:25:29;7.90;99.90
7290;DHT22;63176;52.678;13.250;2024-03-02T05:27:54;7.90;99.90
7290;DHT22;63176;52.678;13.250;2024-03-02T05:30:21;7.90;99.90
7290;DHT22;63176;52.678;13.250;2024-03-02T05:32:47;7.90;99.90
7290;DHT22;63176;52.678;13.250;2024-03-02T05:35:12;7.90;99.90
7290;DHT22;63176;52.678;13.250;2024-03-02T05:37:38;7.90;99.90
7290;DHT22;63176;52.678;13.250;2024-03-02T05:40:05;7.90;99.90
7290;DHT22;63176;52.678;13.250;2024-03-02T05:42:31;7.90;99.90
7290;DHT22;63176;52.678;13.250;2024-03-02T05:44:56;7.90;99.90
7290;DHT22;63176;52.678;13.250;2024-03-02T05:47:22;8.00;99.90
7290;DHT22;63176;52.678;13.250;2024-03-02T05:49:48;8.00;99.90
7290;DHT22;63176;52.678;13.250;2024-03-02T05:52:13;8.00;99.90
7290;DHT22;63176;52.678;13.250;2024-03-02T05:54:39;8.00;99.90
7290;DHT22;63176;52.678;13.250;2024-03-02T05:57:05;8.00;99.90
7290;DHT22;63176;52.678;13.250;2024-03-02T05:59:52;8.00;99.90
7290;DHT22;63176;52.678;13.250;2024-03-02T06:02:17;8.10;99.90
7290;DHT22;63176;52.678;13.250;2024-03-02T06:04:43;8.20;99.90
7290;DHT22;63176;52.678;13.250;2024-03-02T06:07:09;8.20;99.90
7290;DHT22;63176;52.678;13.250;2024-03-02T06:09:34;8.20;99.90
7290;DHT22;63176;52.678;13.250;2024-03-02T06:12:00;8.20;99.90
7290;DHT22;63176;52.678;13.250;2024-03-02T06:14:25;8.30;99.90
7290;DHT22;63176;52.678;13.250;2024-03-02T06:16:51;8.30;99.90
7290;DHT22;63176;52.678;13.250;2024-03-02T06:19:17;8.30;99.90
7290;DHT22;63176;52.678;13.250;2024-03-02T06:21:43;8.30;1.00
7290;DHT22;63176;52.678;13.250;2024-03-02T06:24:09;8.30;1.00
7290;DHT22;63176;52.678;13.250;2024-03-02T06:26:34;8.40;1.00
7290;DHT22;63176;52.678;13.250;2024-03-02T06:29:00;8.30;1.00
7290;DHT22;63176;52.678;13.250;2024-03-02T06:31:27;8.30;1.00
7290;DHT22;63176;52.678;13.250;2024-03-02T06:33:53;8.40;1.00
7290;DHT22;63176;52.678;13.250;2024-03-02T06:36:19;8.40;1.00
7290;DHT22;63176;52.678;13.250;2024-03-02T06:38:44;8.40;1.00
7290;DHT22;63176;52.678;13.250;2024-03-02T06:41:10;8.40;1.00
7290;DHT22;63176;52.678;13.250;2024-03-02T06:43:36;8.40;1.00
7290;DHT22;63176;52.678;13.250;2024-03-02T06:46:02;8.40;1.00
7290;DHT22;63176;52.678;13.250;2024-03-02T06:48:27;8.40;1.00
7290;DHT22;63176;52.678;13.250;2024-03-02T06:50:55;8.40;1.00
7290;DHT22;63176;52.678;13.250;2024-03-02T06:53:21;8.40;1.00
7290;DHT22;63176;52.678;13.250;2024-03-02T06:55:48;8.40;1.00
7290;DHT22;63176;52.678;13.250;2024-03-02T06:58:14;8.40;1.00
7290;DHT22;63176;52.678;13.250;2024-03-02T07:00:41;8.50;1.00
7290;DHT22;63176;52.678;13.250;2024-03-02T07:03:07;8.50;1.00
7290;DHT22;63176;52.678;13.250;2024-03-02T07:05:33;8.50;1.00
7290;DHT22;63176;52.678;13.250;2024-03-02T07:07:59;8.50;1.00
7290;DHT22;63176;52.678;13.250;2024-03-02T07:10:27;8.60;1.00
7290;DHT22;63176;52.678;13.250;2024-03-02T07:12:52;8.60;1.00
7290;DHT22;63176;52.678;13.250;2024-03-02T07:15:18;8.60;1.00
7290;DHT22;63176;52.678;13.250;2024-03-02T07:17:52;8.60;1.00
7290;DHT22;63176;52.678;13.250;2024-03-02T07:20:18;8.60;1.00
7290;DHT22;63176;52.678;13.250;2024-03-02T07:22:44;8.60;1.00
7290;DHT22;63176;52.678;13.250;2024-03-02T07:25:09;8.60;1.00
7290;DHT22;63176;52.678;13.250;2024-03-02T07:27:35;8.60;1.00
7290;DHT22;63176;52.678;13.250;2024-03-02T07:30:02;8.60;1.00
7290;DHT22;63176;52.678;13.250;2024-03-02T07:32:29;8.60;1.00
7290;DHT22;63176;52.678;13.250;2024-03-02T07:34:54;8.70;1.00
7290;DHT22;63176;52.678;13.250;2024-03-02T07:37:21;8.70;1.00
7290;DHT22;63176;52.678;13.250;2024-03-02T07:39:47;8.80;1.00
7290;DHT22;63176;52.678;13.250;2024-03-02T07:42:13;8.80;1.00
7290;DHT22;63176;52.678;13.250;2024-03-02T07:44:39;8.80;1.00
7290;DHT22;63176;52.678;13.250;2024-03-02T07:47:04;8.90;1.00
7290;DHT22;63176;52.678;13.250;2024-03-02T07:49:30;8.90;1.00
7290;DHT22;63176;52.678;13.250;2024-03-02T07:51:56;8.90;1.00
7290;DHT22;63176;52.678;13.250;2024-03-02T07:54:21;9.00;1.00
7290;DHT22;63176;52.678;13.250;2024-03-02T07:56:47;9.00;1.00
7290;DHT22;63176;52.678;13.250;2024-03-02T07:59:13;9.00;1.00
7290;DHT22;63176;52.678;13.250;2024-03-02T08:01:39;9.00;1.00
7290;DHT22;63176;52.678;13.250;2024-03-02T08:04:04;9.00;1.00
7290;DHT22;63176;52.678;13.250;2024-03-02T08:06:30;9.00;1.00
7290;DHT22;63176;52.678;13.250;2024-03-02T08:08:57;9.00;1.00
7290;DHT22;63176;52.678;13.250;2024-03-02T08:11:23;9.00;1.00
7290;DHT22;63176;52.678;13.250;2024-03-02T08:13:49;9.00;1.00
7290;DHT22;63176;52.678;13.250;2024-03-02T08:16:16;9.00;1.00
7290;DHT22;63176;52.678;13.250;2024-03-02T08:18:45;9.00;1.00
7290;DHT22;63176;52.678;13.250;2024-03-02T08:21:11;9.00;1.00
7290;DHT22;63176;52.678;13.250;2024-03-02T08:23:37;9.10;1.00
7290;DHT22;63176;52.678;13.250;2024-03-02T08:26:03;9.10;1.00
7290;DHT22;63176;52.678;13.250;2024-03-02T08:28:29;9.10;1.00
7290;DHT22;63176;52.678;13.250;2024-03-02T08:30:55;9.10;1.00
7290;DHT22;63176;52.678;13.250;2024-03-02T08:33:22;9.10;99.90
7290;DHT22;63176;52.678;13.250;2024-03-02T08:35:47;9.10;99.90
7290;DHT22;63176;52.678;13.250;2024-03-02T08:38:13;9.20;99.90
7290;DHT22;63176;52.678;13.250;2024-03-02T08:40:39;9.10;99.90
7290;DHT22;63176;52.678;13.250;2024-03-02T08:43:05;9.20;99.90
7290;DHT22;63176;52.678;13.250;2024-03-02T08:45:30;9.20;99.90
7290;DHT22;63176;52.678;13.250;2024-03-02T08:47:56;9.20;99.90
7290;DHT22;63176;52.678;13.250;2024-03-02T08:50:22;9.20;99.90
7290;DHT22;63176;52.678;13.250;2024-03-02T08:52:47;9.30;99.90
7290;DHT22;63176;52.678;13.250;2024-03-02T08:55:13;9.30;99.90
7290;DHT22;63176;52.678;13.250;2024-03-02T08:57:40;9.30;99.90
7290;DHT22;63176;52.678;13.250;2024-03-02T09:00:07;9.40;99.90
7290;DHT22;63176;52.678;13.250;2024-03-02T09:02:33;9.40;99.90
7290;DHT22;63176;52.678;13.250;2024-03-02T09:04:59;9.40;99.90
7290;DHT22;63176;52.678;13.250;2024-03-02T09:07:25;9.40;99.90
7290;DHT22;63176;52.678;13.250;2024-03-02T09:09:51;9.50;99.90
7290;DHT22;63176;52.678;13.250;2024-03-02T09:12:18;9.50;99.90
7290;DHT22;63176;52.678;13.250;2024-03-02T09:14:44;9.50;99.90
7290;DHT22;63176;52.678;13.250;2024-03-02T09:17:10;9.50;99.90
7290;DHT22;63176;52.678;13.250;2024-03-02T09:19:37;9.50;99.90
7290;DHT22;63176;52.678;13.250;2024-03-02T09:22:03;9.60;99.90
7290;DHT22;63176;52.678;13.250;2024-03-02T09:24:33;9.60;99.90
7290;DHT22;63176;52.678;13.250;2024-03-02T09:26:59;9.60;99.90
7290;DHT22;63176;52.678;13.250;2024-03-02T09:29:25;9.60;99.90
7290;DHT22;63176;52.678;13.250;2024-03-02T09:31:51;9.60;99.90
7290;DHT22;63176;52.678;13.250;2024-03-02T09:34:17;9.70;99.90
7290;DHT22;63176;52.678;13.250;2024-03-02T09:36:43;9.70;99.90
7290;DHT22;63176;52.678;13.250;2024-03-02T09:39:09;9.70;99.90
7290;DHT22;63176;52.678;13.250;2024-03-02T09:41:38;9.70;99.90
7290;DHT22;63176;52.678;13.250;2024-03-02T09:44:05;9.70;99.90
7290;DHT22;63176;52.678;13.250;2024-03-02T09:46:31;9.80;99.90
7290;DHT22;63176;52.678;13.250;2024-03-02T09:48:56;9.80;99.90
7290;DHT22;63176;52.678;13.250;2024-03-02T09:51:23;9.80;99.90
7290;DHT22;63176;52.678;13.250;2024-03-02T09:53:49;9.80;99.90
7290;DHT22;63176;52.678;13.250;2024-03-02T09:56:15;9.80;99.90
7290;DHT22;63176;52.678;13.250;2024-03-02T09:58:41;9.90;99.90
7290;DHT22;63176;52.678;13.250;2024-03-02T10:01:08;9.90;99.90
7290;DHT22;63176;52.678;13.250;2024-03-02T10:03:36;9.90;99.90
7290;DHT22;63176;52.678;13.250;2024-03-02T10:06:25;9.90;99.90
7290;DHT22;63176;52.678;13.250;2024-03-02T10:08:52;10.00;99.90
7290;DHT22;63176;52.678;13.250;2024-03-02T10:11:34;10.00;99.90
7290;DHT22;63176;52.678;13.250;2024-03-02T10:14:10;10.10;99.90
7290;DHT22;63176;52.678;13.250;2024-03-02T10:16:45;10.10;99.90
7290;DHT22;63176;52.678;13.250;2024-03-02T10:19:21;10.20;99.90
7290;DHT22;63176;52.678;13.250;2024-03-02T10:21:48;10.20;99.90
7290;DHT22;63176;52.678;13.250;2024-03-02T10:24:15;10.30;99.90
7290;DHT22;63176;52.678;13.250;2024-03-02T10:26:41;10.40;99.90
7290;DHT22;63176;52.678;13.250;2024-03-02T10:29:08;10.50;99.90
7290;DHT22;63176;52.678;13.250;2024-03-02T10:31:39;10.50;99.90
7290;DHT22;63176;52.678;13.250;2024-03-02T10:34:06;10.60;99.90
7290;DHT22;63176;52.678;13.250;2024-03-02T10:36:36;10.80;99.90
7290;DHT22;63176;52.678;13.250;2024-03-02T10:39:03;10.80;99.90
7290;DHT22;63176;52.678;13.250;2024-03-02T10:41:36;10.90;99.90
7290;DHT22;63176;52.678;13.250;2024-03-02T10:44:03;10.90;99.90
7290;DHT22;63176;52.678;13.250;2024-03-02T10:46:31;11.00;99.90
7290;DHT22;63176;52.678;13.250;2024-03-02T10:48:58;11.10;99.90
7290;DHT22;63176;52.678;13.250;2024-03-02T10:51:28;11.20;99.90
7290;DHT22;63176;52.678;13.250;2024-03-02T10:53:57;11.40;99.90
7290;DHT22;63176;52.678;13.250;2024-03-02T10:56:31;11.50;99.90
7290;DHT22;63176;52.678;13.250;2024-03-02T11:01:38;11.80;99.90
7290;DHT22;63176;52.678;13.250;2024-03-02T11:04:04;12.10;99.90
7290;DHT22;63176;52.678;13.250;2024-03-02T11:06:35;12.30;99.90
7290;DHT22;63176;52.678;13.250;2024-03-02T11:09:06;12.60;99.90
7290;DHT22;63176;52.678;13.250;2024-03-02T11:11:37;12.90;99.90
7290;DHT22;63176;52.678;13.250;2024-03-02T11:14:07;13.00;99.90
7290;DHT22;63176;52.678;13.250;2024-03-02T11:16:38;13.00;99.90
7290;DHT22;63176;52.678;13.250;2024-03-02T11:19:12;13.10;99.90
7290;DHT22;63176;52.678;13.250;2024-03-02T11:21:38;13.20;99.90
7290;DHT22;63176;52.678;13.250;2024-03-02T11:26:53;13.50;99.90
7290;DHT22;63176;52.678;13.250;2024-03-02T11:32:14;14.00;99.90
7290;DHT22;63176;52.678;13.250;2024-03-02T11:34:42;13.90;99.90
7290;DHT22;63176;52.678;13.250;2024-03-02T11:37:12;13.80;99.90
7290;DHT22;63176;52.678;13.250;2024-03-02T11:39:39;13.60;99.90
7290;DHT22;63176;52.678;13.250;2024-03-02T11:42:08;13.50;99.90
7290;DHT22;63176;52.678;13.250;2024-03-02T11:44:35;13.30;99.90
7290;DHT22;63176;52.678;13.250;2024-03-02T11:47:05;13.10;99.90
7290;DHT22;63176;52.678;13.250;2024-03-02T11:49:42;13.00;99.90
7290;DHT22;63176;52.678;13.250;2024-03-02T11:52:10;12.90;99.90
7290;DHT22;63176;52.678;13.250;2024-03-02T11:54:37;12.90;99.90
7290;DHT22;63176;52.678;13.250;2024-03-02T11:57:15;12.80;99.90
7290;DHT22;63176;52.678;13.250;2024-03-02T11:59:42;12.70;99.90
7290;DHT22;63176;52.678;13.250;2024-03-02T12:02:15;12.60;99.90
7290;DHT22;63176;52.678;13.250;2024-03-02T12:04:42;12.60;99.90
7290;DHT22;63176;52.678;13.250;2024-03-02T12:07:09;12.50;99.90
7290;DHT22;63176;52.678;13.250;2024-03-02T12:09:34;12.50;99.90
7290;DHT22;63176;52.678;13.250;2024-03-02T12:12:10;12.50;99.90
7290;DHT22;63176;52.678;13.250;2024-03-02T12:14:37;12.60;99.90
7290;DHT22;63176;52.678;13.250;2024-03-02T12:17:04;12.60;99.90
7290;DHT22;63176;52.678;13.250;2024-03-02T12:19:32;12.60;99.90
7290;DHT22;63176;52.678;13.250;2024-03-02T12:21:58;12.70;99.90
7290;DHT22;63176;52.678;13.250;2024-03-02T12:24:27;12.70;99.90
7290;DHT22;63176;52.678;13.250;2024-03-02T12:26:53;12.80;99.90
7290;DHT22;63176;52.678;13.250;2024-03-02T12:29:20;12.80;99.90
7290;DHT22;63176;52.678;13.250;2024-03-02T12:31:48;12.80;99.90
7290;DHT22;63176;52.678;13.250;2024-03-02T12:34:15;12.90;99.90
7290;DHT22;63176;52.678;13.250;2024-03-02T12:36:42;13.00;99.90
7290;DHT22;63176;52.678;13.250;2024-03-02T12:39:09;13.00;99.90
7290;DHT22;63176;52.678;13.250;2024-03-02T12:41:38;13.10;99.90
7290;DHT22;63176;52.678;13.250;2024-03-02T12:44:05;13.20;99.90
7290;DHT22;63176;52.678;13.250;2024-03-02T12:46:34;13.20;99.90
7290;DHT22;63176;52.678;13.250;2024-03-02T12:49:14;13.30;99.90
7290;DHT22;63176;52.678;13.250;2024-03-02T12:51:42;13.30;99.90
7290;DHT22;63176;52.678;13.250;2024-03-02T12:54:09;13.40;99.90
7290;DHT22;63176;52.678;13.250;2024-03-02T12:56:38;13.40;99.90
7290;DHT22;63176;52.678;13.250;2024-03-02T12:59:05;13.40;99.90
7290;DHT22;63176;52.678;13.250;2024-03-02T13:01:31;13.50;99.90
7290;DHT22;63176;52.678;13.250;2024-03-02T13:03:58;13.50;99.90
7290;DHT22;63176;52.678;13.250;2024-03-02T13:06:24;13.50;99.90
7290;DHT22;63176;52.678;13.250;2024-03-02T13:08:53;13.50;99.90
7290;DHT22;63176;52.678;13.250;2024-03-02T13:11:19;13.50;99.90
7290;DHT22;63176;52.678;13.250;2024-03-02T13:13:46;13.50;99.90
7290;DHT22;63176;52.678;13.250;2024-03-02T13:16:12;13.50;99.90
7290;DHT22;63176;52.678;13.250;2024-03-02T13:18:39;13.50;99.90
7290;DHT22;63176;52.678;13.250;2024-03-02T13:21:06;13.50;99.90
7290;DHT22;63176;52.678;13.250;2024-03-02T13:23:31;13.50;99.90
7290;DHT22;63176;52.678;13.250;2024-03-02T13:25:58;13.50;99.90
7290;DHT22;63176;52.678;13.250;2024-03-02T13:28:24;13.60;99.90
7290;DHT22;63176;52.678;13.250;2024-03-02T13:30:50;13.70;99.90
7290;DHT22;63176;52.678;13.250;2024-03-02T13:33:16;13.80;99.90
7290;DHT22;63176;52.678;13.250;2024-03-02T13:35:50;13.80;99.90
7290;DHT22;63176;52.678;13.250;2024-03-02T13:38:20;13.90;99.90
7290;DHT22;63176;52.678;13.250;2024-03-02T13:40:46;13.90;99.90
7290;DHT22;63176;52.678;13.250;2024-03-02T13:43:13;13.90;99.90
7290;DHT22;63176;52.678;13.250;2024-03-02T13:45:39;13.90;99.90
7290;DHT22;63176;52.678;13.250;2024-03-02T13:48:05;13.90;99.90
7290;DHT22;63176;52.678;13.250;2024-03-02T13:50:31;13.90;99.90
7290;DHT22;63176;52.678;13.250;2024-03-02T13:52:57;13.90;99.90
7290;DHT22;63176;52.678;13.250;2024-03-02T13:55:22;13.90;99.90
7290;DHT22;63176;52.678;13.250;2024-03-02T13:57:48;13.80;99.90
7290;DHT22;63176;52.678;13.250;2024-03-02T14:00:16;13.70;99.90
7290;DHT22;63176;52.678;13.250;2024-03-02T14:02:43;13.70;99.90
7290;DHT22;63176;52.678;13.250;2024-03-02T14:05:09;13.60;99.90
7290;DHT22;63176;52.678;13.250;2024-03-02T14:07:39;13.60;99.90
7290;DHT22;63176;52.678;13.250;2024-03-02T14:10:05;13.50;99.90
7290;DHT22;63176;52.678;13.250;2024-03-02T14:12:31;13.50;99.90
7290;DHT22;63176;52.678;13.250;2024-03-02T14:14:57;13.40;99.90
7290;DHT22;63176;52.678;13.250;2024-03-02T14:17:30;13.40;99.90
7290;DHT22;63176;52.678;13.250;2024-03-02T14:19:57;13.40;99.90
7290;DHT22;63176;52.678;13.250;2024-03-02T14:22:24;13.30;99.90
7290;DHT22;63176;52.678;13.250;2024-03-02T14:24:50;13.30;99.90
7290;DHT22;63176;52.678;13.250;2024-03-02T14:27:16;13.30;99.90
7290;DHT22;63176;52.678;13.250;2024-03-02T14:29:45;13.20;99.90
7290;DHT22;63176;52.678;13.250;2024-03-02T14:32:10;13.20;99.90
7290;DHT22;63176;52.678;13.250;2024-03-02T14:34:36;13.20;99.90
7290;DHT22;63176;52.678;13.250;2024-03-02T14:37:02;13.20;99.90
7290;DHT22;63176;52.678;13.250;2024-03-02T14:39:28;13.20;99.90
7290;DHT22;63176;52.678;13.250;2024-03-02T14:44:22;13.20;99.90
7290;DHT22;63176;52.678;13.250;2024-03-02T14:46:48;13.20;99.90
7290;DHT22;63176;52.678;13.250;2024-03-02T14:49:14;13.20;99.90
7290;DHT22;63176;52.678;13.250;2024-03-02T14:51:40;13.20;99.90
7290;DHT22;63176;52.678;13.250;2024-03-02T14:54:06;13.20;99.90
7290;DHT22;63176;52.678;13.250;2024-03-02T14:56:32;13.20;99.90
7290;DHT22;63176;52.678;13.250;2024-03-02T14:58:57;13.20;99.90
7290;DHT22;63176;52.678;13.250;2024-03-02T15:01:23;13.10;99.90
7290;DHT22;63176;52.678;13.250;2024-03-02T15:03:51;13.10;99.90
7290;DHT22;63176;52.678;13.250;2024-03-02T15:06:17;13.10;99.90
7290;DHT22;63176;52.678;13.250;2024-03-02T15:08:43;13.10;99.90
7290;DHT22;63176;52.678;13.250;2024-03-02T15:11:12;13.10;99.90
7290;DHT22;63176;52.678;13.250;2024-03-02T15:13:38;13.10;99.90
7290;DHT22;63176;52.678;13.250;2024-03-02T15:16:04;13.10;99.90
7290;DHT22;63176;52.678;13.250;2024-03-02T15:18:30;13.10;99.90
7290;DHT22;63176;52.678;13.250;2024-03-02T15:20:56;13.10;99.90
7290;DHT22;63176;52.678;13.250;2024-03-02T15:23:21;13.00;99.90
7290;DHT22;63176;52.678;13.250;2024-03-02T15:25:47;12.90;99.90
7290;DHT22;63176;52.678;13.250;2024-03-02T15:28:13;12.90;99.90
7290;DHT22;63176;52.678;13.250;2024-03-02T15:30:39;12.90;99.90
7290;DHT22;63176;52.678;13.250;2024-03-02T15:33:04;12.90;99.90
7290;DHT22;63176;52.678;13.250;2024-03-02T15:35:30;12.90;99.90
7290;DHT22;63176;52.678;13.250;2024-03-02T15:37:56;12.90;99.90
7290;DHT22;63176;52.678;13.250;2024-03-02T15:40:21;12.90;99.90
7290;DHT22;63176;52.678;13.250;2024-03-02T15:42:47;12.90;99.90
7290;DHT22;63176;52.678;13.250;2024-03-02T15:45:13;12.80;99.90
7290;DHT22;63176;52.678;13.250;2024-03-02T15:47:38;12.80;99.90
7290;DHT22;63176;52.678;13.250;2024-03-02T15:50:04;12.80;99.90
7290;DHT22;63176;52.678;13.250;2024-03-02T15:52:30;12.80;99.90
7290;DHT22;63176;52.678;13.250;2024-03-02T15:54:56;12.70;99.90